Time;durP1;ratioP1;P1;durP2;ratioP2;P2;SDS_P1;SDS_P2;PMS_P1;PMS_P2;Temp;Humidity;BMP_temperature;BMP_pressure;BME280_temperature;BME280_humidity;BME280_pressure;Samples;Min_cycle;Max_cycle;Signal;HPM_P1;HPM_P2
2022/10/12 00:02:23;;;;;;;9.13;5.33;;;7.00;99.90;;;;;;5034516;28;20235;-76
2022/10/12 00:04:50;;;;;;;11.10;5.73;;;6.90;99.90;;;;;;5017651;28;20260;-78
2022/10/12 00:07:17;;;;;;;12.23;6.23;;;6.90;99.90;;;;;;5038947;28;20727;-78
2022/10/12 00:09:43;;;;;;;10.97;5.53;;;6.90;99.90;;;;;;5038451;28;20255;-79
2022/10/12 00:12:10;;;;;;;12.30;5.60;;;6.90;99.90;;;;;;5038343;28;20205;-77
2022/10/12 00:14:37;;;;;;;12.23;5.80;;;6.90;99.90;;;;;;5047896;28;20590;-79
2022/10/12 00:17:04;;;;;;;9.80;5.53;;;6.90;99.90;;;;;;5046707;28;20289;-79
2022/10/12 00:19:31;;;;;;;9.10;5.30;;;6.90;99.90;;;;;;5044860;28;20305;-78
2022/10/12 00:21:57;;;;;;;8.00;5.20;;;6.90;99.90;;;;;;5040618;28;20205;-77
2022/10/12 00:24:24;;;;;;;11.90;5.53;;;6.90;99.90;;;;;;5039787;28;20223;-80
2022/10/12 00:26:51;;;;;;;10.00;5.33;;;6.90;99.90;;;;;;5040322;28;20278;-78
2022/10/12 00:29:18;;;;;;;10.93;6.53;;;6.80;99.90;;;;;;5048919;28;20272;-78
2022/10/12 00:31:47;;;;;;;11.03;6.40;;;6.80;99.90;;;;;;5050949;28;20200;-78
2022/10/12 00:34:14;;;;;;;12.93;6.23;;;6.80;99.90;;;;;;5025180;28;20323;-80
2022/10/12 00:36:42;;;;;;;8.83;6.33;;;6.80;99.90;;;;;;5041899;28;20209;-78
2022/10/12 00:39:09;;;;;;;7.43;6.10;;;6.80;99.90;;;;;;5040109;28;20291;-78
2022/10/12 00:41:40;;;;;;;10.53;6.57;;;6.80;99.90;;;;;;5047835;28;20204;-78
2022/10/12 00:44:35;;;;;;;9.93;6.10;;;6.70;99.90;;;;;;5038912;28;20257;-78
2022/10/12 00:47:21;;;;;;;8.53;6.07;;;6.70;99.90;;;;;;5023730;28;20644;-78
2022/10/12 00:50:01;;;;;;;9.77;6.70;;;6.70;99.90;;;;;;5041850;28;20739;-79
2022/10/12 00:53:13;;;;;;;12.47;6.53;;;6.70;99.90;;;;;;5044793;28;20295;-79
2022/10/12 00:55:48;;;;;;;9.50;6.33;;;6.60;99.90;;;;;;5023751;28;20209;-78
2022/10/12 00:58:15;;;;;;;7.53;5.80;;;6.60;99.90;;;;;;5042656;28;20632;-78
2022/10/12 01:00:43;;;;;;;12.07;6.60;;;6.60;99.90;;;;;;5028821;28;20284;-77
2022/10/12 01:03:14;;;;;;;14.80;7.10;;;6.70;99.90;;;;;;5046654;28;20203;-78
2022/10/12 01:05:41;;;;;;;11.77;7.07;;;6.60;99.90;;;;;;5025866;28;20316;-77
2022/10/12 01:08:08;;;;;;;12.63;7.47;;;7.10;99.90;;;;;;5026049;28;20193;-77
2022/10/12 01:10:35;;;;;;;12.60;8.63;;;6.60;99.90;;;;;;5043964;28;20225;-77
2022/10/12 01:13:02;;;;;;;15.03;9.33;;;6.70;99.90;;;;;;5038815;28;20206;-78
2022/10/12 01:15:37;;;;;;;22.00;12.53;;;6.70;99.90;;;;;;5028020;28;20197;-77
2022/10/12 01:18:07;;;;;;;22.27;14.27;;;6.70;99.90;;;;;;5041657;28;20290;-78
2022/10/12 01:20:47;;;;;;;23.10;13.67;;;6.90;99.90;;;;;;5040267;28;20221;-78
2022/10/12 01:23:23;;;;;;;18.17;13.87;;;6.70;99.90;;;;;;5035343;28;20320;-78
2022/10/12 01:26:39;;;;;;;21.07;12.60;;;6.70;99.90;;;;;;5040992;28;20201;-79
2022/10/12 01:29:33;;;;;;;21.03;13.80;;;6.70;99.90;;;;;;5029220;28;20227;-78
2022/10/12 01:32:21;;;;;;;22.03;15.47;;;6.70;99.90;;;;;;5037846;28;20216;-78
2022/10/12 01:34:59;;;;;;;25.10;14.97;;;6.70;99.90;;;;;;5046876;28;20232;-78
2022/10/12 01:37:45;;;;;;;19.30;14.37;;;6.70;99.90;;;;;;5025150;28;20201;-78
2022/10/12 01:40:20;;;;;;;25.27;14.77;;;6.70;99.90;;;;;;5040975;28;20315;-78
2022/10/12 01:42:47;;;;;;;21.17;14.80;;;6.70;99.90;;;;;;5024666;28;20248;-78
2022/10/12 01:45:18;;;;;;;22.07;13.80;;;6.70;99.90;;;;;;5046430;28;20198;-78
2022/10/12 01:47:51;;;;;;;22.40;13.60;;;6.70;99.90;;;;;;5040449;28;20326;-78
2022/10/12 01:50:20;;;;;;;22.33;13.27;;;6.70;99.90;;;;;;5040382;28;20240;-78
2022/10/12 01:53:13;;;;;;;22.40;13.67;;;6.60;99.90;;;;;;5049061;28;20244;-80
2022/10/12 01:55:54;;;;;;;19.27;13.60;;;6.60;99.90;;;;;;5045736;28;20296;-78
2022/10/12 01:58:43;;;;;;;23.17;14.33;;;6.60;99.90;;;;;;5035604;28;20200;-78
2022/10/12 02:01:43;;;;;;;22.43;14.07;;;6.60;99.90;;;;;;5043753;28;20217;-76
2022/10/12 02:04:19;;;;;;;23.97;14.57;;;6.60;99.90;;;;;;5042229;28;20243;-78
2022/10/12 02:07:02;;;;;;;17.63;11.60;;;6.50;99.90;;;;;;5038413;28;20202;-77
2022/10/12 02:09:32;;;;;;;21.67;12.90;;;6.50;99.90;;;;;;5042552;28;20227;-77
2022/10/12 02:12:06;;;;;;;20.50;11.63;;;6.50;99.90;;;;;;5024230;28;20199;-78
2022/10/12 02:14:42;;;;;;;19.57;12.40;;;6.50;99.90;;;;;;5021794;28;20625;-78
2022/10/12 02:17:12;;;;;;;18.00;11.87;;;6.40;99.90;;;;;;5020431;28;20264;-78
2022/10/12 02:19:48;;;;;;;18.43;11.70;;;6.40;99.90;;;;;;5043324;28;20274;-77
2022/10/12 02:22:19;;;;;;;16.70;10.93;;;6.40;99.90;;;;;;5044666;28;20303;-79
2022/10/12 02:24:49;;;;;;;16.90;10.47;;;6.40;99.90;;;;;;5022881;28;20688;-79
2022/10/12 02:27:18;;;;;;;16.47;10.03;;;6.40;99.90;;;;;;5032545;28;20212;-79
2022/10/12 02:29:46;;;;;;;16.87;10.97;;;6.40;99.90;;;;;;5042010;28;20316;-78
2022/10/12 02:32:24;;;;;;;19.43;11.27;;;6.40;99.90;;;;;;5036801;28;20210;-78
2022/10/12 02:35:15;;;;;;;16.37;11.63;;;6.40;99.90;;;;;;5041508;28;20247;-77
2022/10/12 02:37:47;;;;;;;18.40;12.23;;;6.40;99.90;;;;;;5040450;28;20283;-80
2022/10/12 02:40:43;;;;;;;14.67;11.37;;;6.40;99.90;;;;;;5022533;28;20248;-78
2022/10/12 02:43:15;;;;;;;19.77;12.93;;;6.40;99.90;;;;;;5017972;28;20223;-79
2022/10/12 02:45:45;;;;;;;17.33;12.57;;;6.40;99.90;;;;;;5037126;28;20331;-78
2022/10/12 02:48:18;;;;;;;13.73;11.73;;;6.40;99.90;;;;;;5034549;28;20689;-80
2022/10/12 02:50:46;;;;;;;19.17;12.60;;;6.40;99.90;;;;;;5034322;28;20230;-78
2022/10/12 02:53:13;;;;;;;20.80;14.23;;;6.40;99.90;;;;;;5045973;28;20330;-78
2022/10/12 02:55:51;;;;;;;19.33;13.03;;;6.40;99.90;;;;;;5021847;28;20243;-77
2022/10/12 02:58:18;;;;;;;16.47;11.70;;;6.40;99.90;;;;;;5042708;28;20204;-77
2022/10/12 03:00:45;;;;;;;19.33;12.47;;;6.40;99.90;;;;;;5039449;28;20291;-78
2022/10/12 03:03:12;;;;;;;16.40;11.90;;;6.40;99.90;;;;;;5021157;28;20206;-77
2022/10/12 03:05:39;;;;;;;17.00;11.77;;;6.30;99.90;;;;;;5023396;28;20227;-78
2022/10/12 03:08:06;;;;;;;18.20;11.90;;;6.40;99.90;;;;;;5043675;28;20205;-77
2022/10/12 03:10:34;;;;;;;21.03;13.13;;;6.40;99.90;;;;;;5040482;28;20229;-77
2022/10/12 03:13:01;;;;;;;16.50;10.70;;;6.40;99.90;;;;;;5024599;28;20720;-78
2022/10/12 03:15:27;;;;;;;16.60;11.43;;;6.40;99.90;;;;;;5037712;28;20216;-78
2022/10/12 03:17:54;;;;;;;16.53;10.97;;;6.40;99.90;;;;;;5004421;28;20691;-77
2022/10/12 03:20:21;;;;;;;15.00;11.47;;;6.40;99.90;;;;;;5036462;28;20359;-78
2022/10/12 03:22:48;;;;;;;16.70;11.53;;;6.30;99.90;;;;;;5039376;28;20206;-79
2022/10/12 03:25:16;;;;;;;20.20;11.43;;;6.40;99.90;;;;;;5036787;28;20224;-77
2022/10/12 03:27:42;;;;;;;15.07;10.97;;;6.30;99.90;;;;;;5037462;28;20216;-78
2022/10/12 03:30:13;;;;;;;13.43;11.23;;;6.30;99.90;;;;;;5021307;28;20252;-78
2022/10/12 03:32:40;;;;;;;16.70;11.50;;;6.40;99.90;;;;;;5022099;28;20364;-77
2022/10/12 03:35:08;;;;;;;16.93;11.67;;;6.40;99.90;;;;;;5010149;28;20651;-76
2022/10/12 03:37:34;;;;;;;17.90;12.20;;;6.40;99.90;;;;;;5013962;28;20223;-76
2022/10/12 03:40:03;;;;;;;14.97;10.80;;;6.40;99.90;;;;;;5018142;28;20224;-77
2022/10/12 03:42:30;;;;;;;15.77;10.77;;;6.40;99.90;;;;;;5002928;28;20293;-78
2022/10/12 03:44:57;;;;;;;16.97;10.87;;;6.30;99.90;;;;;;5019844;28;20307;-78
2022/10/12 03:47:23;;;;;;;18.23;10.70;;;6.30;99.90;;;;;;4997862;28;20313;-78
2022/10/12 03:49:50;;;;;;;18.63;10.37;;;6.30;99.90;;;;;;5021035;28;20221;-77
2022/10/12 03:52:18;;;;;;;15.73;10.00;;;6.40;99.90;;;;;;5025038;28;20236;-77
2022/10/12 03:54:45;;;;;;;13.97;9.70;;;6.30;99.90;;;;;;5007532;28;20485;-77
2022/10/12 03:57:12;;;;;;;20.17;10.83;;;6.20;99.90;;;;;;5027753;28;20220;-77
2022/10/12 03:59:39;;;;;;;13.03;10.30;;;6.20;99.90;;;;;;5019234;28;20205;-78
2022/10/12 04:02:06;;;;;;;12.80;9.53;;;6.10;99.90;;;;;;5019992;28;20232;-77
2022/10/12 04:04:36;;;;;;;16.00;9.67;;;6.10;99.90;;;;;;5015312;28;20219;-79
2022/10/12 04:07:02;;;;;;;13.43;10.33;;;6.10;99.90;;;;;;5007536;28;20299;-78
2022/10/12 04:09:30;;;;;;;13.00;9.90;;;6.00;99.90;;;;;;5011702;28;20201;-78
2022/10/12 04:11:57;;;;;;;15.23;10.37;;;6.00;99.90;;;;;;5016302;28;20227;-78
2022/10/12 04:14:24;;;;;;;17.03;11.00;;;6.00;99.90;;;;;;5028184;28;20199;-79
2022/10/12 04:16:53;;;;;;;15.80;9.87;;;6.60;99.90;;;;;;5022299;28;20225;-79
2022/10/12 04:19:20;;;;;;;14.43;9.17;;;5.90;99.90;;;;;;5017040;28;20260;-78
2022/10/12 04:21:47;;;;;;;16.63;9.70;;;5.90;99.90;;;;;;5021177;28;20224;-79
2022/10/12 04:24:14;;;;;;;11.23;8.40;;;5.80;99.90;;;;;;5014977;28;20299;-79
2022/10/12 04:26:43;;;;;;;14.37;10.33;;;5.60;99.90;;;;;;5021321;28;20247;-78
2022/10/12 04:29:12;;;;;;;15.70;9.67;;;5.70;99.90;;;;;;5021372;28;20202;-79
2022/10/12 04:31:39;;;;;;;14.63;8.83;;;5.70;99.90;;;;;;5009463;28;20234;-78
2022/10/12 04:34:10;;;;;;;14.00;9.57;;;5.70;99.90;;;;;;5035526;28;20221;-78
2022/10/12 04:36:36;;;;;;;11.97;8.93;;;5.60;99.90;;;;;;5018616;28;20218;-77
2022/10/12 04:39:03;;;;;;;14.30;9.50;;;5.80;99.90;;;;;;5038153;28;20300;-79
2022/10/12 04:41:31;;;;;;;12.87;8.67;;;5.50;99.90;;;;;;5035874;28;20296;-79
2022/10/12 04:43:58;;;;;;;11.27;7.70;;;6.20;99.90;;;;;;5049020;28;20211;-79
2022/10/12 04:46:28;;;;;;;11.20;7.27;;;5.40;99.90;;;;;;5036616;28;20275;-79
2022/10/12 04:48:55;;;;;;;10.37;7.00;;;5.40;99.90;;;;;;5036355;28;20222;-78
2022/10/12 04:51:21;;;;;;;10.43;6.73;;;5.40;99.90;;;;;;5032482;28;20229;-79
2022/10/12 04:53:51;;;;;;;14.47;6.70;;;5.50;99.90;;;;;;5045551;28;20238;-79
2022/10/12 04:56:18;;;;;;;10.00;6.80;;;5.30;99.90;;;;;;5048806;28;20301;-80
2022/10/12 04:58:45;;;;;;;9.77;7.00;;;5.30;99.90;;;;;;5032545;28;20711;-78
2022/10/12 05:01:14;;;;;;;9.47;7.07;;;4.70;99.90;;;;;;5057237;28;20318;-78
2022/10/12 05:03:41;;;;;;;10.93;7.07;;;5.10;99.90;;;;;;5046590;28;20240;-78
2022/10/12 05:06:08;;;;;;;25.07;9.60;;;5.20;99.90;;;;;;5054302;28;20227;-79
2022/10/12 05:08:35;;;;;;;13.20;7.30;;;5.20;99.90;;;;;;5041281;28;20216;-79
2022/10/12 05:11:02;;;;;;;11.13;7.40;;;5.10;99.90;;;;;;5031315;28;20271;-79
2022/10/12 05:13:29;;;;;;;11.87;7.40;;;5.10;99.90;;;;;;5030968;28;20227;-80
2022/10/12 05:15:57;;;;;;;7.97;6.43;;;5.10;99.90;;;;;;5047901;28;20212;-79
2022/10/12 05:18:23;;;;;;;11.37;7.13;;;5.10;99.90;;;;;;5043893;28;20192;-78
2022/10/12 05:20:50;;;;;;;15.63;7.87;;;5.10;99.90;;;;;;5028168;28;20304;-78
2022/10/12 05:23:22;;;;;;;10.17;7.33;;;5.00;99.90;;;;;;5041730;28;20205;-79
2022/10/12 05:25:56;;;;;;;11.63;6.90;;;;;;;;;;5028390;28;20918;-78
2022/10/12 05:28:23;;;;;;;10.03;7.03;;;5.00;99.90;;;;;;5042278;28;20247;-79
2022/10/12 05:30:51;;;;;;;12.97;6.90;;;5.00;99.90;;;;;;5022677;28;20715;-79
2022/10/12 05:33:19;;;;;;;16.80;7.20;;;4.90;99.90;;;;;;5036339;28;20240;-78
2022/10/12 05:35:47;;;;;;;13.33;8.23;;;4.90;99.90;;;;;;5042314;28;20246;-78
2022/10/12 05:38:20;;;;;;;11.90;7.93;;;4.90;99.90;;;;;;5039494;28;20208;-78
2022/10/12 05:40:47;;;;;;;14.33;8.23;;;4.90;99.90;;;;;;5039575;28;20300;-77
2022/10/12 05:43:14;;;;;;;13.83;9.10;;;4.90;99.90;;;;;;5048481;28;20208;-79
2022/10/12 05:45:42;;;;;;;13.50;7.70;;;5.00;99.90;;;;;;5019350;28;20289;-78
2022/10/12 05:48:08;;;;;;;14.07;8.07;;;4.80;99.90;;;;;;5042034;28;20291;-79
2022/10/12 05:50:35;;;;;;;13.13;7.70;;;4.90;99.90;;;;;;5043600;28;20235;-78
2022/10/12 05:53:02;;;;;;;15.13;8.07;;;4.90;99.90;;;;;;5040826;28;20211;-79
2022/10/12 05:55:29;;;;;;;13.63;9.60;;;4.80;99.90;;;;;;5042146;28;20782;-78
2022/10/12 05:57:56;;;;;;;13.13;9.13;;;4.80;99.90;;;;;;5036507;28;20546;-79
2022/10/12 06:00:23;;;;;;;15.13;9.03;;;4.80;99.90;;;;;;5038227;28;20295;-78
2022/10/12 06:02:51;;;;;;;14.67;8.47;;;4.80;99.90;;;;;;5041072;28;20563;-79
2022/10/12 06:05:19;;;;;;;17.40;8.83;;;4.90;99.90;;;;;;5049485;28;20258;-77
2022/10/12 06:07:46;;;;;;;12.30;9.17;;;4.90;99.90;;;;;;5043436;28;20710;-77
2022/10/12 06:10:13;;;;;;;13.57;8.70;;;4.90;99.90;;;;;;5026292;28;20243;-78
2022/10/12 06:12:42;;;;;;;16.27;8.30;;;4.90;99.90;;;;;;5044331;28;20252;-79
2022/10/12 06:15:09;;;;;;;14.07;9.00;;;4.90;99.90;;;;;;5050909;28;20209;-78
2022/10/12 06:17:36;;;;;;;11.47;8.80;;;5.00;99.90;;;;;;5041626;28;20208;-80
2022/10/12 06:20:03;;;;;;;16.87;9.17;;;5.10;99.90;;;;;;5020377;28;20263;-79
2022/10/12 06:22:30;;;;;;;14.77;8.13;;;5.10;99.90;;;;;;5047463;28;20559;-79
2022/10/12 06:24:57;;;;;;;13.63;9.20;;;5.20;99.90;;;;;;5044062;28;20712;-78
2022/10/12 06:27:26;;;;;;;13.87;9.07;;;5.20;99.90;;;;;;5042419;28;20268;-80
2022/10/12 06:29:53;;;;;;;15.27;10.40;;;5.20;99.90;;;;;;5045940;28;20230;-78
2022/10/12 06:32:20;;;;;;;17.83;9.50;;;5.50;99.90;;;;;;5047588;28;20249;-79
2022/10/12 06:34:48;;;;;;;19.57;9.43;;;5.50;99.90;;;;;;5050571;28;20232;-77
2022/10/12 06:37:15;;;;;;;24.90;8.37;;;5.60;99.90;;;;;;5052580;28;21113;-79
2022/10/12 06:40:05;;;;;;;20.47;9.47;;;5.70;99.90;;;;;;5036709;28;20240;-79
2022/10/12 06:42:34;;;;;;;18.70;8.87;;;5.80;99.90;;;;;;5065296;28;20539;-78
2022/10/12 06:45:01;;;;;;;16.43;9.00;;;6.00;99.90;;;;;;5051168;28;20582;-78
2022/10/12 06:47:31;;;;;;;14.50;9.23;;;6.10;99.90;;;;;;5042586;28;20672;-79
2022/10/12 06:49:58;;;;;;;23.03;9.37;;;6.30;99.90;;;;;;5062761;28;20225;-79
2022/10/12 06:52:27;;;;;;;17.30;8.63;;;6.40;99.90;;;;;;5034456;28;20695;-79
2022/10/12 06:54:54;;;;;;;13.00;8.10;;;6.60;99.90;;;;;;5054590;28;20232;-78
2022/10/12 06:57:21;;;;;;;20.27;8.37;;;6.70;99.90;;;;;;5050343;28;20237;-79
2022/10/12 06:59:47;;;;;;;14.50;7.90;;;6.80;99.90;;;;;;5047327;28;20229;-78
2022/10/12 07:02:17;;;;;;;21.63;8.80;;;6.90;99.90;;;;;;5038515;28;20240;-79
2022/10/12 07:04:47;;;;;;;18.23;7.90;;;7.00;99.90;;;;;;5045744;28;20309;-78
2022/10/12 07:07:14;;;;;;;17.80;8.37;;;7.10;99.90;;;;;;5052858;28;20201;-78
2022/10/12 07:09:41;;;;;;;19.17;8.03;;;7.10;99.90;;;;;;5053258;28;20280;-79
2022/10/12 07:12:08;;;;;;;18.93;8.80;;;7.10;99.90;;;;;;5049048;28;20280;-78
2022/10/12 07:14:35;;;;;;;25.87;9.33;;;7.20;99.90;;;;;;5048211;28;20203;-78
2022/10/12 07:17:02;;;;;;;15.07;7.97;;;7.20;99.90;;;;;;5046937;28;20194;-77
2022/10/12 07:19:28;;;;;;;10.67;7.73;;;7.30;99.90;;;;;;5045262;28;20219;-79
2022/10/12 07:21:55;;;;;;;18.67;8.30;;;7.40;99.90;;;;;;5040061;28;20261;-77
2022/10/12 07:24:22;;;;;;;15.10;7.87;;;7.50;99.90;;;;;;5024324;28;20217;-78
2022/10/12 07:26:50;;;;;;;17.60;8.37;;;7.50;99.90;;;;;;5027269;28;20209;-79
2022/10/12 07:29:17;;;;;;;14.33;7.43;;;7.50;99.90;;;;;;5043466;28;20534;-78
2022/10/12 07:31:44;;;;;;;13.80;7.90;;;7.60;99.90;;;;;;5042437;28;20285;-77
2022/10/12 07:34:17;;;;;;;15.37;7.37;;;7.70;99.90;;;;;;5044050;28;20287;-77
2022/10/12 07:36:44;;;;;;;11.07;7.43;;;7.60;99.90;;;;;;5039275;28;20240;-77
2022/10/12 07:39:26;;;;;;;12.37;7.63;;;7.60;99.90;;;;;;5038701;28;20213;-78
2022/10/12 07:41:53;;;;;;;10.93;7.70;;;7.60;99.90;;;;;;5040313;28;20302;-75
2022/10/12 07:44:21;;;;;;;15.00;8.67;;;7.60;99.90;;;;;;5041201;28;20245;-80
2022/10/12 07:46:48;;;;;;;32.60;18.93;;;7.70;99.90;;;;;;5038990;28;20613;-78
2022/10/12 07:49:15;;;;;;;16.47;10.73;;;7.70;99.90;;;;;;5040508;28;20585;-78
2022/10/12 07:51:42;;;;;;;15.27;9.93;;;7.80;99.90;;;;;;5045604;28;20238;-78
2022/10/12 07:54:09;;;;;;;14.47;9.37;;;7.90;99.90;;;;;;5025153;28;20206;-79
2022/10/12 07:56:37;;;;;;;13.80;9.17;;;7.90;99.90;;;;;;5021960;28;20657;-77
2022/10/12 07:59:04;;;;;;;16.23;9.67;;;8.00;99.90;;;;;;5038803;28;20237;-78
2022/10/12 08:01:31;;;;;;;20.50;11.50;;;8.10;99.90;;;;;;5040831;28;20226;-79
2022/10/12 08:03:58;;;;;;;19.07;11.43;;;8.10;99.90;;;;;;5029351;28;20652;-79
2022/10/12 08:06:30;;;;;;;21.13;12.30;;;8.30;99.90;;;;;;5037198;28;20209;-78
2022/10/12 08:08:59;;;;;;;23.20;12.73;;;8.30;99.90;;;;;;5038262;28;20210;-80
2022/10/12 08:11:26;;;;;;;16.80;12.00;;;8.30;99.90;;;;;;5044402;28;20244;-79
2022/10/12 08:13:53;;;;;;;20.67;12.47;;;8.40;99.90;;;;;;5024218;28;20217;-77
2022/10/12 08:16:24;;;;;;;18.67;11.67;;;8.50;99.90;;;;;;5041262;28;20221;-78
2022/10/12 08:18:51;;;;;;;25.43;12.57;;;8.50;99.90;;;;;;5019815;28;20213;-78
2022/10/12 08:21:18;;;;;;;20.73;11.90;;;8.60;99.90;;;;;;5025231;28;20199;-77
2022/10/12 08:23:45;;;;;;;18.93;12.67;;;8.60;99.90;;;;;;5017364;28;20607;-79
2022/10/12 08:26:14;;;;;;;23.73;12.93;;;8.70;99.90;;;;;;5022949;28;20248;-79
2022/10/12 08:28:42;;;;;;;22.23;12.43;;;8.70;99.90;;;;;;5045191;28;20210;-79
2022/10/12 08:31:16;;;;;;;23.43;12.30;;;8.80;99.90;;;;;;5037640;28;20222;-78
2022/10/12 08:33:43;;;;;;;23.37;14.13;;;8.90;99.90;;;;;;5047571;28;20232;-77
2022/10/12 08:36:12;;;;;;;19.30;13.40;;;9.00;99.90;;;;;;5029474;28;20210;-78
2022/10/12 08:38:38;;;;;;;23.47;12.90;;;9.00;99.90;;;;;;5043311;28;20573;-78
2022/10/12 08:41:35;;;;;;;26.30;13.70;;;9.10;99.90;;;;;;5041123;28;20274;-77
2022/10/12 08:44:24;;;;;;;23.83;12.80;;;9.20;99.90;;;;;;5029622;28;20204;-80
2022/10/12 08:47:17;;;;;;;20.53;12.67;;;9.30;99.90;;;;;;5038748;28;20204;-80
2022/10/12 08:49:45;;;;;;;19.93;11.80;;;9.40;99.90;;;;;;5014975;28;20248;-79
2022/10/12 08:52:30;;;;;;;25.30;12.43;;;9.40;99.90;;;;;;5038376;28;20319;-78
2022/10/12 08:55:14;;;;;;;21.43;11.60;;;9.50;99.90;;;;;;5040170;28;20213;-78
2022/10/12 08:57:41;;;;;;;21.10;11.57;;;9.60;99.90;;;;;;5041663;28;20711;-77
2022/10/12 09:00:16;;;;;;;19.20;11.17;;;9.60;99.90;;;;;;5040442;28;20213;-77
2022/10/12 09:03:13;;;;;;;17.23;11.33;;;9.70;99.90;;;;;;5047025;28;20197;-78
2022/10/12 09:05:56;;;;;;;19.33;11.77;;;9.80;99.90;;;;;;5036901;28;21019;-79
2022/10/12 09:08:49;;;;;;;20.67;12.23;;;9.80;99.90;;;;;;5028250;28;20232;-78
2022/10/12 09:11:30;;;;;;;24.33;12.07;;;9.90;99.90;;;;;;5050451;28;20554;-78
2022/10/12 09:14:22;;;;;;;18.03;11.63;;;9.90;99.90;;;;;;5038443;28;20222;-79
2022/10/12 09:16:51;;;;;;;22.60;12.60;;;10.00;99.90;;;;;;5035714;28;20206;-79
2022/10/12 09:19:20;;;;;;;21.63;12.10;;;10.20;99.90;;;;;;5059450;28;20642;-79
2022/10/12 09:21:48;;;;;;;23.07;12.00;;;10.30;99.90;;;;;;5055453;28;20198;-78
2022/10/12 09:24:19;;;;;;;22.90;12.17;;;10.20;99.90;;;;;;5050999;28;20233;-78
2022/10/12 09:26:50;;;;;;;19.93;11.70;;;10.80;99.90;;;;;;5034209;28;20261;-79
2022/10/12 09:29:23;;;;;;;24.93;12.90;;;10.40;99.90;;;;;;5030610;28;20214;-79
2022/10/12 09:32:19;;;;;;;23.53;12.57;;;10.50;99.90;;;;;;5032150;28;20230;-78
2022/10/12 09:34:47;;;;;;;22.90;12.30;;;10.60;99.90;;;;;;5005175;28;20660;-79
2022/10/12 09:37:20;;;;;;;21.83;11.93;;;10.70;99.90;;;;;;5028682;28;20267;-78
2022/10/12 09:39:47;;;;;;;16.10;11.40;;;10.80;99.90;;;;;;5040866;28;20262;-79
2022/10/12 09:42:14;;;;;;;21.63;12.37;;;10.90;99.90;;;;;;5053576;28;20226;-80
2022/10/12 09:44:51;;;;;;;20.23;12.03;;;10.90;99.90;;;;;;5044436;28;20251;-80
2022/10/12 09:47:26;;;;;;;21.17;11.67;;;11.10;99.90;;;;;;5045420;28;20290;-79
2022/10/12 09:49:59;;;;;;;18.17;11.87;;;;;;;;;;5026466;28;20254;-79
2022/10/12 09:52:30;;;;;;;21.27;10.60;;;11.10;99.90;;;;;;5042415;28;20234;-79
2022/10/12 09:55:00;;;;;;;21.60;11.73;;;11.30;99.90;;;;;;5042499;28;20220;-81
2022/10/12 09:57:41;;;;;;;18.03;10.90;;;11.30;99.90;;;;;;5030871;28;20223;-79
2022/10/12 10:00:27;;;;;;;19.13;10.97;;;11.40;99.90;;;;;;5041483;28;20204;-82
2022/10/12 10:02:55;;;;;;;20.40;11.43;;;11.40;99.90;;;;;;5024724;28;20665;-79
2022/10/12 10:05:32;;;;;;;17.00;11.53;;;11.40;99.90;;;;;;5040066;28;20228;-80
2022/10/12 10:08:23;;;;;;;18.90;10.97;;;11.50;99.90;;;;;;5032067;28;20233;-80
2022/10/12 10:10:54;;;;;;;22.07;12.60;;;11.50;99.90;;;;;;5048281;28;20341;-80
2022/10/12 10:13:30;;;;;;;20.77;12.23;;;11.60;99.90;;;;;;5046067;28;20289;-79
2022/10/12 10:16:10;;;;;;;17.17;12.17;;;11.70;99.90;;;;;;5045574;28;20201;-80
2022/10/12 10:18:43;;;;;;;17.93;11.43;;;11.70;99.90;;;;;;5028944;28;20210;-81
2022/10/12 10:21:13;;;;;;;24.50;12.50;;;11.80;99.90;;;;;;5052258;28;20676;-81
2022/10/12 10:23:50;;;;;;;22.37;12.17;;;11.80;99.90;;;;;;5040246;28;20212;-81
2022/10/12 10:26:20;;;;;;;21.70;11.53;;;11.90;99.90;;;;;;5036294;28;20227;-79
2022/10/12 10:28:49;;;;;;;20.27;12.80;;;11.90;99.90;;;;;;5051241;28;20270;-79
2022/10/12 10:31:26;;;;;;;21.77;12.37;;;12.00;99.90;;;;;;5048978;28;20661;-78
2022/10/12 10:34:08;;;;;;;19.27;12.10;;;12.00;99.90;;;;;;5054539;28;20224;-80
2022/10/12 10:36:55;;;;;;;19.27;10.50;;;12.10;99.90;;;;;;5036694;28;20201;-80
2022/10/12 10:39:26;;;;;;;18.67;11.27;;;12.20;99.90;;;;;;5053659;28;20633;-82
2022/10/12 10:41:54;;;;;;;18.60;10.97;;;12.40;99.90;;;;;;5058616;28;20633;-80
2022/10/12 10:44:32;;;;;;;19.47;12.07;;;12.30;99.90;;;;;;5024930;28;20365;-80
2022/10/12 10:47:06;;;;;;;21.10;11.27;;;12.70;99.90;;;;;;5026344;28;20212;-80
2022/10/12 10:49:35;;;;;;;19.40;12.03;;;12.80;99.90;;;;;;5040483;28;20276;-80
2022/10/12 10:52:07;;;;;;;19.83;11.73;;;13.00;99.90;;;;;;5036197;28;20232;-80
2022/10/12 10:54:39;;;;;;;17.70;10.80;;;13.00;99.90;;;;;;5038610;28;20292;-81
2022/10/12 10:57:16;;;;;;;21.37;11.43;;;13.50;99.90;;;;;;5024164;28;20280;-80
2022/10/12 11:00:06;;;;;;;22.03;10.87;;;13.50;99.90;;;;;;5043058;28;20251;-82
2022/10/12 11:02:55;;;;;;;19.20;11.13;;;13.90;99.90;;;;;;5043419;28;20205;-81
2022/10/12 11:05:23;;;;;;;13.87;9.90;;;;;;;;;;5027435;28;20618;-81
2022/10/12 11:08:04;;;;;;;18.60;10.90;;;14.00;99.90;;;;;;5021096;28;20219;-81
2022/10/12 11:10:56;;;;;;;18.67;11.07;;;14.20;99.90;;;;;;5039619;28;20670;-80
2022/10/12 11:13:31;;;;;;;16.63;9.97;;;14.40;99.90;;;;;;5022107;28;20690;-80
2022/10/12 11:16:11;;;;;;;20.90;9.63;;;14.40;99.90;;;;;;5038977;28;20622;-81
2022/10/12 11:18:48;;;;;;;17.97;10.33;;;14.70;99.90;;;;;;5019499;28;20267;-80
2022/10/12 11:21:40;;;;;;;18.40;8.83;;;14.90;99.90;;;;;;5022132;28;20209;-80
2022/10/12 11:24:30;;;;;;;16.90;9.43;;;15.00;99.90;;;;;;5035467;28;20201;-79
2022/10/12 11:27:17;;;;;;;15.97;7.97;;;15.20;99.90;;;;;;5035441;28;20205;-82
2022/10/12 11:29:43;;;;;;;19.20;8.10;;;15.30;99.90;;;;;;5041831;28;20743;-81
2022/10/12 11:32:33;;;;;;;16.80;7.83;;;15.30;99.90;;;;;;5041139;28;20240;-79
2022/10/12 11:35:03;;;;;;;17.20;7.47;;;15.30;99.90;;;;;;5043642;28;20228;-80
2022/10/12 11:37:42;;;;;;;18.37;7.07;;;15.30;99.90;;;;;;5035297;28;20212;-80
2022/10/12 11:40:18;;;;;;;17.53;7.50;;;15.40;99.90;;;;;;5045063;28;20642;-80
2022/10/12 11:43:11;;;;;;;14.47;7.17;;;15.30;99.90;;;;;;5042470;28;20212;-79
2022/10/12 11:45:42;;;;;;;13.20;6.90;;;15.40;99.90;;;;;;5041255;28;20200;-80
2022/10/12 11:48:41;;;;;;;16.73;8.17;;;15.50;99.90;;;;;;5038077;28;20299;-79
2022/10/12 11:51:11;;;;;;;15.40;9.43;;;15.60;99.90;;;;;;5042538;28;20209;-79
2022/10/12 11:53:43;;;;;;;13.40;8.60;;;15.80;99.90;;;;;;5038191;28;20358;-81
2022/10/12 11:56:42;;;;;;;17.37;7.30;;;16.00;99.90;;;;;;5040029;28;20213;-80
2022/10/12 11:59:17;;;;;;;14.80;7.47;;;16.20;99.90;;;;;;5018946;28;20244;-79
2022/10/12 12:01:49;;;;;;;12.27;7.47;;;16.30;99.90;;;;;;5038239;28;20228;-81
2022/10/12 12:04:31;;;;;;;18.70;8.60;;;16.50;99.90;;;;;;5034431;28;20221;-80
2022/10/12 12:07:35;;;;;;;19.90;7.70;;;16.50;99.90;;;;;;5039212;28;20213;-79
2022/10/12 12:10:24;;;;;;;13.23;7.80;;;16.70;99.90;;;;;;5041919;28;20224;-80
2022/10/12 12:13:21;;;;;;;16.67;7.90;;;16.80;99.90;;;;;;5036767;28;20229;-77
2022/10/12 12:15:48;;;;;;;14.70;7.57;;;16.80;99.90;;;;;;5015083;28;20205;-79
2022/10/12 12:18:18;;;;;;;15.10;8.57;;;16.90;99.90;;;;;;5020606;28;20248;-78
2022/10/12 12:20:47;;;;;;;16.63;8.30;;;16.90;99.90;;;;;;5036562;28;20308;-78
2022/10/12 12:23:25;;;;;;;15.20;7.90;;;16.90;99.90;;;;;;5042998;28;20230;-80
2022/10/12 12:26:10;;;;;;;16.92;7.82;;;16.80;99.90;;;;;;5040203;28;20204;-78
2022/10/12 12:28:48;;;;;;;15.68;7.78;;;17.10;99.90;;;;;;5035286;28;20559;-82
2022/10/12 12:31:25;;;;;;;13.13;6.82;;;17.20;99.90;;;;;;5045072;28;20213;-79
2022/10/12 12:34:11;;;;;;;10.00;5.18;;;17.30;99.90;;;;;;5038873;28;20313;-79
2022/10/12 12:36:43;;;;;;;15.87;5.53;;;17.00;99.90;;;;;;5038841;28;20209;-79
2022/10/12 12:39:26;;;;;;;12.98;6.18;;;17.00;99.90;;;;;;5037404;28;20210;-80
2022/10/12 12:41:57;;;;;;;12.95;5.65;;;17.00;99.90;;;;;;5021630;28;20619;-78
2022/10/12 12:44:34;;;;;;;19.17;7.25;;;17.00;99.90;;;;;;5040106;28;20244;-80
2022/10/12 12:47:01;;;;;;;14.50;6.82;;;17.10;99.90;;;;;;5020469;28;20205;-78
2022/10/12 12:49:53;;;;;;;15.27;6.20;;;17.00;99.90;;;;;;5044857;28;20724;-80
2022/10/12 12:52:29;;;;;;;15.52;7.97;;;17.10;99.90;;;;;;5036419;28;20316;-80
2022/10/12 12:55:36;;;;;;;15.60;7.13;;;17.20;99.90;;;;;;5018940;28;20304;-79
2022/10/12 12:58:17;;;;;;;15.43;7.03;;;17.20;99.90;;;;;;5036049;28;20714;-79
2022/10/12 13:01:02;;;;;;;16.85;6.63;;;17.10;99.90;;;;;;5038355;28;20441;-79
2022/10/12 13:03:53;;;;;;;11.95;4.65;;;17.10;99.90;;;;;;5039073;28;20576;-80
2022/10/12 13:06:50;;;;;;;8.80;3.60;;;16.90;99.90;;;;;;5038488;28;20288;-79
2022/10/12 13:09:26;;;;;;;8.68;3.47;;;16.80;99.90;;;;;;5037558;28;20304;-80
2022/10/12 13:12:25;;;;;;;11.68;4.18;;;16.80;99.90;;;;;;5018789;28;20205;-79